sensor_id;sensor_type;location;lat;lon;timestamp;P1;durP1;ratioP1;P2;durP2;ratioP2
75071;SDS011;63651;55.728;38.022;2023-07-30T00:02:40;3.42;;;1.83;;
75071;SDS011;63651;55.728;38.022;2023-07-30T00:07:41;4.30;;;2.40;;
75071;SDS011;63651;55.728;38.022;2023-07-30T00:12:42;5.35;;;2.55;;
75071;SDS011;63651;55.728;38.022;2023-07-30T00:17:43;3.90;;;3.08;;
75071;SDS011;63651;55.728;38.022;2023-07-30T00:22:44;4.05;;;3.50;;
75071;SDS011;63651;55.728;38.022;2023-07-30T00:27:45;4.55;;;3.17;;
75071;SDS011;63651;55.728;38.022;2023-07-30T00:32:46;5.60;;;3.42;;
75071;SDS011;63651;55.728;38.022;2023-07-30T00:37:47;4.53;;;3.50;;
75071;SDS011;63651;55.728;38.022;2023-07-30T00:42:48;4.32;;;3.28;;
75071;SDS011;63651;55.728;38.022;2023-07-30T00:47:49;3.88;;;3.45;;
75071;SDS011;63651;55.728;38.022;2023-07-30T00:52:51;4.25;;;2.78;;
75071;SDS011;63651;55.728;38.022;2023-07-30T00:57:52;4.93;;;3.20;;
75071;SDS011;63651;55.728;38.022;2023-07-30T01:02:53;3.67;;;3.00;;
75071;SDS011;63651;55.728;38.022;2023-07-30T01:07:54;3.47;;;2.80;;
75071;SDS011;63651;55.728;38.022;2023-07-30T01:12:55;2.78;;;2.55;;
75071;SDS011;63651;55.728;38.022;2023-07-30T01:17:57;3.05;;;2.28;;
75071;SDS011;63651;55.728;38.022;2023-07-30T01:23:01;3.40;;;2.60;;
75071;SDS011;63651;55.728;38.022;2023-07-30T01:28:02;4.75;;;2.45;;
75071;SDS011;63651;55.728;38.022;2023-07-30T01:33:06;4.03;;;2.30;;
75071;SDS011;63651;55.728;38.022;2023-07-30T01:38:08;2.85;;;2.13;;
75071;SDS011;63651;55.728;38.022;2023-07-30T01:43:11;4.97;;;2.97;;
75071;SDS011;63651;55.728;38.022;2023-07-30T01:48:12;3.60;;;2.10;;
75071;SDS011;63651;55.728;38.022;2023-07-30T01:53:13;2.95;;;2.15;;
75071;SDS011;63651;55.728;38.022;2023-07-30T01:58:14;3.72;;;2.20;;
75071;SDS011;63651;55.728;38.022;2023-07-30T02:03:15;3.30;;;2.10;;
75071;SDS011;63651;55.728;38.022;2023-07-30T02:08:16;3.47;;;2.03;;
75071;SDS011;63651;55.728;38.022;2023-07-30T02:13:17;4.50;;;2.50;;
75071;SDS011;63651;55.728;38.022;2023-07-30T02:18:18;4.55;;;2.30;;
75071;SDS011;63651;55.728;38.022;2023-07-30T02:23:19;3.88;;;2.78;;
75071;SDS011;63651;55.728;38.022;2023-07-30T02:28:20;3.25;;;2.35;;
75071;SDS011;63651;55.728;38.022;2023-07-30T02:33:21;3.28;;;2.42;;
75071;SDS011;63651;55.728;38.022;2023-07-30T02:38:22;2.70;;;2.17;;
75071;SDS011;63651;55.728;38.022;2023-07-30T02:43:23;4.00;;;2.53;;
75071;SDS011;63651;55.728;38.022;2023-07-30T02:48:24;2.67;;;2.42;;
75071;SDS011;63651;55.728;38.022;2023-07-30T02:53:25;3.50;;;3.08;;
75071;SDS011;63651;55.728;38.022;2023-07-30T02:58:26;4.30;;;3.10;;
75071;SDS011;63651;55.728;38.022;2023-07-30T03:03:27;3.53;;;2.80;;
75071;SDS011;63651;55.728;38.022;2023-07-30T03:08:28;4.88;;;3.22;;
75071;SDS011;63651;55.728;38.022;2023-07-30T03:13:29;4.07;;;3.20;;
75071;SDS011;63651;55.728;38.022;2023-07-30T03:18:30;4.43;;;3.20;;
75071;SDS011;63651;55.728;38.022;2023-07-30T03:23:31;5.57;;;3.83;;
75071;SDS011;63651;55.728;38.022;2023-07-30T03:28:32;3.88;;;3.47;;
75071;SDS011;63651;55.728;38.022;2023-07-30T03:33:33;4.63;;;3.38;;
75071;SDS011;63651;55.728;38.022;2023-07-30T03:38:35;5.05;;;3.42;;
75071;SDS011;63651;55.728;38.022;2023-07-30T03:43:36;5.72;;;3.78;;
75071;SDS011;63651;55.728;38.022;2023-07-30T03:48:37;4.13;;;3.45;;
75071;SDS011;63651;55.728;38.022;2023-07-30T03:53:39;4.30;;;3.20;;
75071;SDS011;63651;55.728;38.022;2023-07-30T03:58:40;5.05;;;3.90;;
75071;SDS011;63651;55.728;38.022;2023-07-30T04:03:41;4.30;;;3.55;;
75071;SDS011;63651;55.728;38.022;2023-07-30T04:08:42;3.05;;;2.67;;
75071;SDS011;63651;55.728;38.022;2023-07-30T04:13:43;4.95;;;3.33;;
75071;SDS011;63651;55.728;38.022;2023-07-30T04:18:44;4.20;;;3.42;;
75071;SDS011;63651;55.728;38.022;2023-07-30T04:23:45;5.25;;;3.17;;
75071;SDS011;63651;55.728;38.022;2023-07-30T04:28:46;4.78;;;3.30;;
75071;SDS011;63651;55.728;38.022;2023-07-30T04:33:47;4.28;;;3.25;;
75071;SDS011;63651;55.728;38.022;2023-07-30T04:38:48;4.03;;;3.15;;
75071;SDS011;63651;55.728;38.022;2023-07-30T04:43:49;4.65;;;2.85;;
75071;SDS011;63651;55.728;38.022;2023-07-30T04:48:50;4.72;;;2.97;;
75071;SDS011;63651;55.728;38.022;2023-07-30T04:53:51;3.60;;;2.75;;
75071;SDS011;63651;55.728;38.022;2023-07-30T04:58:52;5.07;;;2.80;;
75071;SDS011;63651;55.728;38.022;2023-07-30T05:03:54;4.10;;;3.00;;
75071;SDS011;63651;55.728;38.022;2023-07-30T05:08:55;3.70;;;3.28;;
75071;SDS011;63651;55.728;38.022;2023-07-30T05:13:56;3.80;;;2.70;;
75071;SDS011;63651;55.728;38.022;2023-07-30T05:18:57;4.88;;;3.10;;
75071;SDS011;63651;55.728;38.022;2023-07-30T05:23:58;3.40;;;2.70;;
75071;SDS011;63651;55.728;38.022;2023-07-30T05:28:59;4.63;;;2.75;;
75071;SDS011;63651;55.728;38.022;2023-07-30T05:34:00;3.38;;;2.70;;
75071;SDS011;63651;55.728;38.022;2023-07-30T05:39:02;4.40;;;2.70;;
75071;SDS011;63651;55.728;38.022;2023-07-30T05:44:03;2.92;;;2.38;;
75071;SDS011;63651;55.728;38.022;2023-07-30T05:49:04;3.75;;;2.53;;
75071;SDS011;63651;55.728;38.022;2023-07-30T05:54:05;3.53;;;2.47;;
75071;SDS011;63651;55.728;38.022;2023-07-30T05:59:06;2.78;;;2.47;;
75071;SDS011;63651;55.728;38.022;2023-07-30T06:04:07;3.80;;;2.42;;
75071;SDS011;63651;55.728;38.022;2023-07-30T06:09:08;3.60;;;2.13;;
75071;SDS011;63651;55.728;38.022;2023-07-30T06:14:09;3.92;;;2.33;;
75071;SDS011;63651;55.728;38.022;2023-07-30T06:19:10;2.35;;;1.90;;
75071;SDS011;63651;55.728;38.022;2023-07-30T06:24:11;3.28;;;2.35;;
75071;SDS011;63651;55.728;38.022;2023-07-30T06:29:13;3.17;;;2.25;;
75071;SDS011;63651;55.728;38.022;2023-07-30T06:34:14;3.70;;;1.98;;
75071;SDS011;63651;55.728;38.022;2023-07-30T06:39:15;4.00;;;2.17;;
75071;SDS011;63651;55.728;38.022;2023-07-30T06:44:16;2.50;;;1.77;;
75071;SDS011;63651;55.728;38.022;2023-07-30T06:49:17;2.83;;;1.98;;
75071;SDS011;63651;55.728;38.022;2023-07-30T06:54:18;3.25;;;2.05;;
75071;SDS011;63651;55.728;38.022;2023-07-30T06:59:19;2.42;;;1.80;;
75071;SDS011;63651;55.728;38.022;2023-07-30T07:04:20;3.30;;;1.98;;
75071;SDS011;63651;55.728;38.022;2023-07-30T07:09:21;2.13;;;1.92;;
75071;SDS011;63651;55.728;38.022;2023-07-30T07:14:22;1.95;;;1.75;;
75071;SDS011;63651;55.728;38.022;2023-07-30T07:19:23;2.70;;;1.90;;
75071;SDS011;63651;55.728;38.022;2023-07-30T07:24:25;2.83;;;1.90;;
75071;SDS011;63651;55.728;38.022;2023-07-30T07:29:27;2.97;;;1.90;;
75071;SDS011;63651;55.728;38.022;2023-07-30T07:34:28;2.28;;;1.92;;
75071;SDS011;63651;55.728;38.022;2023-07-30T07:39:29;2.13;;;1.73;;
75071;SDS011;63651;55.728;38.022;2023-07-30T07:44:30;3.10;;;1.85;;
75071;SDS011;63651;55.728;38.022;2023-07-30T07:49:31;2.13;;;1.92;;
75071;SDS011;63651;55.728;38.022;2023-07-30T07:54:32;2.78;;;1.92;;
75071;SDS011;63651;55.728;38.022;2023-07-30T07:59:34;2.80;;;2.20;;
75071;SDS011;63651;55.728;38.022;2023-07-30T08:04:36;2.55;;;2.30;;
75071;SDS011;63651;55.728;38.022;2023-07-30T08:09:37;2.92;;;1.63;;
75071;SDS011;63651;55.728;38.022;2023-07-30T08:14:38;2.15;;;1.80;;
75071;SDS011;63651;55.728;38.022;2023-07-30T08:19:39;3.22;;;2.05;;
75071;SDS011;63651;55.728;38.022;2023-07-30T08:24:40;3.10;;;2.30;;
75071;SDS011;63651;55.728;38.022;2023-07-30T08:29:41;2.22;;;1.80;;
75071;SDS011;63651;55.728;38.022;2023-07-30T08:34:43;2.88;;;1.70;;
75071;SDS011;63651;55.728;38.022;2023-07-30T08:39:44;2.17;;;1.92;;
75071;SDS011;63651;55.728;38.022;2023-07-30T08:44:45;1.98;;;1.63;;
75071;SDS011;63651;55.728;38.022;2023-07-30T08:49:46;2.10;;;1.80;;
75071;SDS011;63651;55.728;38.022;2023-07-30T08:54:47;2.45;;;1.70;;
75071;SDS011;63651;55.728;38.022;2023-07-30T08:59:52;2.05;;;1.70;;
75071;SDS011;63651;55.728;38.022;2023-07-30T09:05:00;3.42;;;2.13;;
75071;SDS011;63651;55.728;38.022;2023-07-30T09:10:02;2.80;;;1.73;;
75071;SDS011;63651;55.728;38.022;2023-07-30T09:15:04;2.45;;;2.03;;
75071;SDS011;63651;55.728;38.022;2023-07-30T09:20:06;2.38;;;1.73;;
75071;SDS011;63651;55.728;38.022;2023-07-30T09:25:08;2.35;;;1.95;;
75071;SDS011;63651;55.728;38.022;2023-07-30T09:30:10;1.70;;;1.60;;
75071;SDS011;63651;55.728;38.022;2023-07-30T09:35:11;1.48;;;1.38;;
75071;SDS011;63651;55.728;38.022;2023-07-30T09:40:13;3.40;;;1.70;;
75071;SDS011;63651;55.728;38.022;2023-07-30T09:45:22;3.13;;;1.60;;
75071;SDS011;63651;55.728;38.022;2023-07-30T09:50:25;2.25;;;1.90;;
75071;SDS011;63651;55.728;38.022;2023-07-30T09:55:26;2.28;;;1.52;;
75071;SDS011;63651;55.728;38.022;2023-07-30T10:00:28;2.10;;;1.63;;
75071;SDS011;63651;55.728;38.022;2023-07-30T10:05:32;2.55;;;1.63;;
75071;SDS011;63651;55.728;38.022;2023-07-30T10:10:35;3.15;;;1.63;;
75071;SDS011;63651;55.728;38.022;2023-07-30T10:15:37;2.05;;;1.83;;
75071;SDS011;63651;55.728;38.022;2023-07-30T10:20:39;2.38;;;1.60;;
75071;SDS011;63651;55.728;38.022;2023-07-30T10:25:45;2.55;;;1.60;;
75071;SDS011;63651;55.728;38.022;2023-07-30T10:30:54;3.03;;;2.10;;
75071;SDS011;63651;55.728;38.022;2023-07-30T10:36:00;1.98;;;1.42;;
75071;SDS011;63651;55.728;38.022;2023-07-30T10:41:05;2.45;;;2.08;;
75071;SDS011;63651;55.728;38.022;2023-07-30T10:46:11;3.08;;;1.90;;
75071;SDS011;63651;55.728;38.022;2023-07-30T10:51:14;2.00;;;1.73;;
75071;SDS011;63651;55.728;38.022;2023-07-30T10:56:17;2.00;;;1.50;;
75071;SDS011;63651;55.728;38.022;2023-07-30T11:01:23;2.65;;;1.80;;
75071;SDS011;63651;55.728;38.022;2023-07-30T11:06:26;2.92;;;1.50;;
75071;SDS011;63651;55.728;38.022;2023-07-30T11:11:27;2.03;;;1.55;;
75071;SDS011;63651;55.728;38.022;2023-07-30T11:16:29;2.90;;;1.67;;
75071;SDS011;63651;55.728;38.022;2023-07-30T11:21:30;2.75;;;1.73;;
75071;SDS011;63651;55.728;38.022;2023-07-30T11:26:31;2.50;;;1.63;;
75071;SDS011;63651;55.728;38.022;2023-07-30T11:31:32;2.58;;;1.55;;
75071;SDS011;63651;55.728;38.022;2023-07-30T11:36:34;2.15;;;1.70;;
75071;SDS011;63651;55.728;38.022;2023-07-30T11:41:35;1.85;;;1.42;;
75071;SDS011;63651;55.728;38.022;2023-07-30T11:46:36;3.00;;;1.70;;
75071;SDS011;63651;55.728;38.022;2023-07-30T11:51:37;2.13;;;1.40;;
75071;SDS011;63651;55.728;38.022;2023-07-30T11:56:38;2.40;;;1.50;;
75071;SDS011;63651;55.728;38.022;2023-07-30T12:01:39;2.25;;;1.38;;
75071;SDS011;63651;55.728;38.022;2023-07-30T12:06:47;1.33;;;1.05;;
75071;SDS011;63651;55.728;38.022;2023-07-30T12:11:55;1.88;;;1.17;;
75071;SDS011;63651;55.728;38.022;2023-07-30T12:16:56;2.90;;;1.30;;
75071;SDS011;63651;55.728;38.022;2023-07-30T12:21:58;2.83;;;1.40;;
75071;SDS011;63651;55.728;38.022;2023-07-30T12:26:59;1.85;;;1.40;;
75071;SDS011;63651;55.728;38.022;2023-07-30T12:32:01;1.80;;;1.50;;
75071;SDS011;63651;55.728;38.022;2023-07-30T12:37:02;2.00;;;1.40;;
75071;SDS011;63651;55.728;38.022;2023-07-30T12:42:03;1.85;;;1.48;;
75071;SDS011;63651;55.728;38.022;2023-07-30T12:47:04;2.00;;;1.55;;
75071;SDS011;63651;55.728;38.022;2023-07-30T12:52:05;5.10;;;3.20;;
75071;SDS011;63651;55.728;38.022;2023-07-30T12:57:06;2.25;;;1.80;;
75071;SDS011;63651;55.728;38.022;2023-07-30T13:02:07;2.00;;;1.75;;
75071;SDS011;63651;55.728;38.022;2023-07-30T13:07:08;2.60;;;1.70;;
75071;SDS011;63651;55.728;38.022;2023-07-30T13:12:10;2.83;;;1.58;;
75071;SDS011;63651;55.728;38.022;2023-07-30T13:17:11;3.28;;;1.65;;
75071;SDS011;63651;55.728;38.022;2023-07-30T13:22:12;2.30;;;1.63;;
75071;SDS011;63651;55.728;38.022;2023-07-30T13:27:13;1.77;;;1.17;;
75071;SDS011;63651;55.728;38.022;2023-07-30T13:32:14;1.52;;;1.27;;
75071;SDS011;63651;55.728;38.022;2023-07-30T13:37:15;1.90;;;1.50;;
75071;SDS011;63651;55.728;38.022;2023-07-30T13:42:17;3.33;;;1.38;;
75071;SDS011;63651;55.728;38.022;2023-07-30T13:47:18;2.70;;;1.75;;
75071;SDS011;63651;55.728;38.022;2023-07-30T13:52:19;3.47;;;2.60;;
75071;SDS011;63651;55.728;38.022;2023-07-30T13:57:23;4.35;;;2.42;;
75071;SDS011;63651;55.728;38.022;2023-07-30T14:02:25;2.97;;;1.98;;
75071;SDS011;63651;55.728;38.022;2023-07-30T14:07:26;1.95;;;1.55;;
75071;SDS011;63651;55.728;38.022;2023-07-30T14:12:27;3.25;;;1.70;;
75071;SDS011;63651;55.728;38.022;2023-07-30T14:17:28;2.78;;;1.60;;
75071;SDS011;63651;55.728;38.022;2023-07-30T14:22:31;2.20;;;1.50;;
75071;SDS011;63651;55.728;38.022;2023-07-30T14:27:32;3.17;;;1.95;;
75071;SDS011;63651;55.728;38.022;2023-07-30T14:32:33;3.08;;;2.15;;
75071;SDS011;63651;55.728;38.022;2023-07-30T14:37:34;2.65;;;1.92;;
75071;SDS011;63651;55.728;38.022;2023-07-30T14:42:35;2.92;;;1.75;;
75071;SDS011;63651;55.728;38.022;2023-07-30T14:47:36;2.83;;;2.08;;
75071;SDS011;63651;55.728;38.022;2023-07-30T14:52:37;2.88;;;1.38;;
75071;SDS011;63651;55.728;38.022;2023-07-30T14:57:38;2.17;;;1.60;;
75071;SDS011;63651;55.728;38.022;2023-07-30T15:02:39;3.38;;;1.60;;
75071;SDS011;63651;55.728;38.022;2023-07-30T15:07:41;3.30;;;2.10;;
75071;SDS011;63651;55.728;38.022;2023-07-30T15:12:42;1.85;;;1.48;;
75071;SDS011;63651;55.728;38.022;2023-07-30T15:17:43;2.15;;;1.60;;
75071;SDS011;63651;55.728;38.022;2023-07-30T15:22:45;2.58;;;1.52;;
75071;SDS011;63651;55.728;38.022;2023-07-30T15:27:46;5.10;;;1.90;;
75071;SDS011;63651;55.728;38.022;2023-07-30T15:32:47;4.47;;;1.80;;
75071;SDS011;63651;55.728;38.022;2023-07-30T15:37:48;2.38;;;1.42;;
75071;SDS011;63651;55.728;38.022;2023-07-30T15:42:49;2.22;;;1.70;;
75071;SDS011;63651;55.728;38.022;2023-07-30T15:47:50;1.65;;;1.35;;
75071;SDS011;63651;55.728;38.022;2023-07-30T15:52:52;2.40;;;1.80;;
75071;SDS011;63651;55.728;38.022;2023-07-30T15:57:54;1.50;;;1.30;;
75071;SDS011;63651;55.728;38.022;2023-07-30T16:02:55;1.70;;;1.50;;
75071;SDS011;63651;55.728;38.022;2023-07-30T16:07:56;2.88;;;1.80;;
75071;SDS011;63651;55.728;38.022;2023-07-30T16:12:57;1.60;;;1.50;;
75071;SDS011;63651;55.728;38.022;2023-07-30T16:17:59;1.65;;;1.30;;
75071;SDS011;63651;55.728;38.022;2023-07-30T16:23:00;2.03;;;1.52;;
75071;SDS011;63651;55.728;38.022;2023-07-30T16:28:01;3.10;;;1.88;;
75071;SDS011;63651;55.728;38.022;2023-07-30T16:33:02;4.07;;;2.45;;
75071;SDS011;63651;55.728;38.022;2023-07-30T16:38:06;7.13;;;2.85;;
75071;SDS011;63651;55.728;38.022;2023-07-30T16:43:07;4.85;;;2.22;;
75071;SDS011;63651;55.728;38.022;2023-07-30T16:48:08;39.63;;;12.68;;
75071;SDS011;63651;55.728;38.022;2023-07-30T16:53:09;29.23;;;10.48;;
75071;SDS011;63651;55.728;38.022;2023-07-30T16:58:10;29.63;;;10.23;;
75071;SDS011;63651;55.728;38.022;2023-07-30T17:03:11;30.10;;;10.65;;
75071;SDS011;63651;55.728;38.022;2023-07-30T17:08:13;5.88;;;2.83;;
75071;SDS011;63651;55.728;38.022;2023-07-30T17:13:14;4.97;;;2.60;;
75071;SDS011;63651;55.728;38.022;2023-07-30T17:18:15;5.22;;;2.80;;
75071;SDS011;63651;55.728;38.022;2023-07-30T17:23:16;4.38;;;2.42;;
75071;SDS011;63651;55.728;38.022;2023-07-30T17:28:17;3.17;;;2.00;;
75071;SDS011;63651;55.728;38.022;2023-07-30T17:33:19;3.08;;;2.00;;
75071;SDS011;63651;55.728;38.022;2023-07-30T17:38:20;3.75;;;2.00;;
75071;SDS011;63651;55.728;38.022;2023-07-30T17:43:21;3.53;;;2.15;;
75071;SDS011;63651;55.728;38.022;2023-07-30T17:48:23;6.90;;;3.03;;
75071;SDS011;63651;55.728;38.022;2023-07-30T17:53:24;8.38;;;3.10;;
75071;SDS011;63651;55.728;38.022;2023-07-30T17:58:26;6.80;;;3.05;;
75071;SDS011;63651;55.728;38.022;2023-07-30T18:03:27;7.72;;;3.80;;
75071;SDS011;63651;55.728;38.022;2023-07-30T18:08:29;8.52;;;3.53;;
75071;SDS011;63651;55.728;38.022;2023-07-30T18:13:30;7.82;;;3.03;;
75071;SDS011;63651;55.728;38.022;2023-07-30T18:18:31;5.80;;;3.05;;
75071;SDS011;63651;55.728;38.022;2023-07-30T18:23:32;6.65;;;2.90;;
75071;SDS011;63651;55.728;38.022;2023-07-30T18:28:34;7.65;;;2.95;;
75071;SDS011;63651;55.728;38.022;2023-07-30T18:33:35;12.20;;;3.58;;
75071;SDS011;63651;55.728;38.022;2023-07-30T18:38:36;12.00;;;4.78;;
75071;SDS011;63651;55.728;38.022;2023-07-30T18:43:37;15.68;;;4.95;;
75071;SDS011;63651;55.728;38.022;2023-07-30T18:48:38;15.32;;;5.57;;
75071;SDS011;63651;55.728;38.022;2023-07-30T18:53:39;13.50;;;5.57;;
75071;SDS011;63651;55.728;38.022;2023-07-30T18:58:40;9.35;;;4.88;;
75071;SDS011;63651;55.728;38.022;2023-07-30T19:03:41;11.45;;;4.68;;
75071;SDS011;63651;55.728;38.022;2023-07-30T19:08:42;13.43;;;4.63;;
75071;SDS011;63651;55.728;38.022;2023-07-30T19:13:43;9.25;;;4.15;;
75071;SDS011;63651;55.728;38.022;2023-07-30T19:18:45;9.23;;;3.80;;
75071;SDS011;63651;55.728;38.022;2023-07-30T19:23:46;8.93;;;3.80;;
75071;SDS011;63651;55.728;38.022;2023-07-30T19:28:47;8.80;;;3.72;;
75071;SDS011;63651;55.728;38.022;2023-07-30T19:33:48;7.22;;;4.05;;
75071;SDS011;63651;55.728;38.022;2023-07-30T19:38:49;10.25;;;4.20;;
75071;SDS011;63651;55.728;38.022;2023-07-30T19:43:51;4.90;;;3.45;;
75071;SDS011;63651;55.728;38.022;2023-07-30T19:48:52;11.13;;;4.10;;
75071;SDS011;63651;55.728;38.022;2023-07-30T19:53:54;6.20;;;3.33;;
75071;SDS011;63651;55.728;38.022;2023-07-30T19:58:55;7.22;;;3.65;;
75071;SDS011;63651;55.728;38.022;2023-07-30T20:03:56;6.78;;;3.85;;
75071;SDS011;63651;55.728;38.022;2023-07-30T20:08:57;6.57;;;3.13;;
75071;SDS011;63651;55.728;38.022;2023-07-30T20:13:58;6.28;;;3.50;;
75071;SDS011;63651;55.728;38.022;2023-07-30T20:18:59;9.35;;;4.07;;
75071;SDS011;63651;55.728;38.022;2023-07-30T20:24:00;6.32;;;3.47;;
75071;SDS011;63651;55.728;38.022;2023-07-30T20:29:01;5.93;;;3.78;;
75071;SDS011;63651;55.728;38.022;2023-07-30T20:34:03;5.88;;;3.55;;
75071;SDS011;63651;55.728;38.022;2023-07-30T20:39:04;5.88;;;3.33;;
75071;SDS011;63651;55.728;38.022;2023-07-30T20:44:05;7.90;;;3.75;;
75071;SDS011;63651;55.728;38.022;2023-07-30T20:49:08;7.72;;;3.65;;
75071;SDS011;63651;55.728;38.022;2023-07-30T20:54:09;7.18;;;3.83;;
75071;SDS011;63651;55.728;38.022;2023-07-30T20:59:11;7.43;;;4.07;;
75071;SDS011;63651;55.728;38.022;2023-07-30T21:04:12;6.93;;;3.33;;
75071;SDS011;63651;55.728;38.022;2023-07-30T21:09:13;6.05;;;3.72;;
75071;SDS011;63651;55.728;38.022;2023-07-30T21:14:15;6.18;;;3.30;;
75071;SDS011;63651;55.728;38.022;2023-07-30T21:19:16;4.25;;;2.88;;
75071;SDS011;63651;55.728;38.022;2023-07-30T21:24:17;5.70;;;3.35;;
75071;SDS011;63651;55.728;38.022;2023-07-30T21:29:18;7.28;;;3.42;;
75071;SDS011;63651;55.728;38.022;2023-07-30T21:34:19;9.75;;;4.00;;
75071;SDS011;63651;55.728;38.022;2023-07-30T21:39:20;5.57;;;3.00;;
75071;SDS011;63651;55.728;38.022;2023-07-30T21:44:21;5.78;;;3.00;;
75071;SDS011;63651;55.728;38.022;2023-07-30T21:49:22;5.13;;;2.88;;
75071;SDS011;63651;55.728;38.022;2023-07-30T21:54:23;5.90;;;3.15;;
75071;SDS011;63651;55.728;38.022;2023-07-30T21:59:24;7.78;;;3.28;;
75071;SDS011;63651;55.728;38.022;2023-07-30T22:04:25;5.60;;;3.55;;
75071;SDS011;63651;55.728;38.022;2023-07-30T22:09:26;12.07;;;4.22;;
75071;SDS011;63651;55.728;38.022;2023-07-30T22:14:27;12.73;;;4.25;;
75071;SDS011;63651;55.728;38.022;2023-07-30T22:19:28;15.35;;;4.22;;
75071;SDS011;63651;55.728;38.022;2023-07-30T22:24:31;10.00;;;4.03;;
75071;SDS011;63651;55.728;38.022;2023-07-30T22:29:32;10.30;;;3.95;;
75071;SDS011;63651;55.728;38.022;2023-07-30T22:34:33;9.43;;;4.22;;
75071;SDS011;63651;55.728;38.022;2023-07-30T22:39:34;11.68;;;4.45;;
75071;SDS011;63651;55.728;38.022;2023-07-30T22:44:35;11.25;;;4.32;;
75071;SDS011;63651;55.728;38.022;2023-07-30T22:49:36;13.30;;;5.50;;
75071;SDS011;63651;55.728;38.022;2023-07-30T22:54:37;12.23;;;4.78;;
75071;SDS011;63651;55.728;38.022;2023-07-30T22:59:39;12.93;;;4.45;;
75071;SDS011;63651;55.728;38.022;2023-07-30T23:04:40;8.98;;;5.13;;
75071;SDS011;63651;55.728;38.022;2023-07-30T23:09:41;8.32;;;4.60;;
75071;SDS011;63651;55.728;38.022;2023-07-30T23:14:42;10.70;;;4.63;;
75071;SDS011;63651;55.728;38.022;2023-07-30T23:19:43;9.60;;;4.32;;
75071;SDS011;63651;55.728;38.022;2023-07-30T23:24:44;7.47;;;4.22;;
75071;SDS011;63651;55.728;38.022;2023-07-30T23:29:45;8.57;;;4.28;;
75071;SDS011;63651;55.728;38.022;2023-07-30T23:34:47;7.63;;;4.18;;
75071;SDS011;63651;55.728;38.022;2023-07-30T23:39:50;6.82;;;4.00;;
75071;SDS011;63651;55.728;38.022;2023-07-30T23:44:52;6.63;;;3.78;;
75071;SDS011;63651;55.728;38.022;2023-07-30T23:49:54;6.18;;;3.97;;
75071;SDS011;63651;55.728;38.022;2023-07-30T23:54:55;5.88;;;3.50;;
75071;SDS011;63651;55.728;38.022;2023-07-30T23:59:56;5.97;;;3.30;;
